Terminal Aerodrome Forecast
Issued by NWS Sterling, VA

Home | Current Version | Previous Version | Text Only | Print | Product List | Glossary On
Versions: 1 2 3 4 5 6 7 8 9 10 11 12 13 14 15 16 17
000
FTUS41 KLWX 050541
TAFCHO
TAF
KCHO 050541Z 0506/0606 02005KT 3SM -RA BR OVC003
     FM050800 36005KT 3SM -RA BR OVC015
     FM051200 34008KT 1SM -SNPL BR OVC006
     FM051600 36012G18KT 1/2SM SN OVC003
     FM052000 03007KT 2SM -SN OVC010
     FM060000 02008KT P6SM OVC025
     FM060400 01004KT P6SM SCT050=

USA.gov is the U.S. government's official web portal to all federal, state and local government web resources and services.